This is the latest recevied weather packets stored in our database for station/object F5SAW-10. If no packets are shown the sender has not sent any weather packets the latest 10 day(s).
| Time | Temp. | Humidity | Pressure | Rain* | Wind** | Luminosity | Snow |
|---|---|---|---|---|---|---|---|
| 1777719677 | 27.22° C | 40% | 981.9 hPa | - | - | - | - |
| 1777718777 | 27.22° C | 39% | 982.2 hPa | - | - | - | - |
| 1777718776 | 27.22° C | 39% | 982.2 hPa | - | - | - | - |
| 1777717876 | 27.22° C | 39% | 982.5 hPa | - | - | - | - |
| 1777716976 | 27.22° C | 39% | 982.5 hPa | - | - | - | - |
| 1777716076 | 27.22° C | 39% | 982.6 hPa | - | - | - | - |
| 1777715176 | 27.22° C | 39% | 982.4 hPa | - | - | - | - |
| 1777714276 | 27.22° C | 39% | 982.3 hPa | - | - | - | - |
| 1777713376 | 27.22° C | 39% | 982.2 hPa | - | - | - | - |
| 1777712476 | 27.22° C | 39% | 982.1 hPa | - | - | - | - |
| 1777711576 | 26.67° C | 39% | 982 hPa | - | - | - | - |
| 1777710676 | 26.67° C | 40% | 982 hPa | - | - | - | - |
| 1777709775 | 26.67° C | 39% | 981.9 hPa | - | - | - | - |
| 1777708875 | 26.67° C | 39% | 982.1 hPa | - | - | - | - |
| 1777707975 | 26.67° C | 39% | 982.2 hPa | - | - | - | - |
| 1777707075 | 26.67° C | 39% | 982.1 hPa | - | - | - | - |
| 1777706175 | 26.11° C | 39% | 982.3 hPa | - | - | - | - |
| 1777705275 | 26.11° C | 39% | 982.4 hPa | - | - | - | - |
| 1777704375 | 26.11° C | 40% | 982.4 hPa | - | - | - | - |
| 1777703475 | 25.56° C | 41% | 982.4 hPa | - | - | - | - |
| 1777702575 | 24.44° C | 45% | 982.6 hPa | - | - | - | - |
| 1777701674 | 19.44° C | 55% | 982.7 hPa | - | - | - | - |
| 1777661179 | 27.78° C | 40% | 984.4 hPa | - | - | - | - |
| 1777660279 | 27.78° C | 40% | 984.3 hPa | - | - | - | - |
| 1777659379 | 27.78° C | 40% | 984.1 hPa | - | - | - | - |
* Rain since midnight (hover to see other rain measurements)
** Current wind speed in m/s (hover to see current wind gust speed)